createdAt,value
2018-09-13T00:00:04.141Z,16.29
2018-09-13T00:03:09.454Z,16.36
2018-09-13T00:06:14.124Z,16.33
2018-09-13T00:09:19.139Z,16.30
2018-09-13T00:12:23.701Z,16.20
2018-09-13T00:15:28.131Z,16.14
2018-09-13T00:18:33.151Z,16.13
2018-09-13T00:21:37.582Z,16.21
2018-09-13T00:24:41.940Z,16.36
2018-09-13T00:27:46.947Z,16.58
2018-09-13T00:30:52.298Z,16.56
2018-09-13T00:33:56.717Z,16.26
2018-09-13T00:37:00.896Z,16.07
2018-09-13T00:40:05.562Z,15.97
2018-09-13T00:43:09.971Z,15.92
2018-09-13T00:46:14.571Z,16.34
2018-09-13T00:49:18.935Z,16.19
2018-09-13T00:52:25.306Z,15.81
2018-09-13T00:55:29.706Z,15.91
2018-09-13T00:58:34.824Z,15.86
2018-09-13T01:01:40.467Z,15.69
2018-09-13T01:04:45.592Z,15.62
2018-09-13T01:07:49.996Z,15.56
2018-09-13T01:10:55.112Z,15.51
2018-09-13T01:14:00.529Z,15.50
2018-09-13T01:17:04.998Z,15.47
2018-09-13T01:20:09.373Z,15.82
2018-09-13T01:23:15.824Z,15.62
2018-09-13T01:26:21.317Z,15.44
2018-09-13T01:29:25.834Z,15.32
2018-09-13T01:32:30.620Z,15.26
2018-09-13T01:35:36.662Z,15.21
2018-09-13T01:38:41.102Z,15.16
2018-09-13T01:41:48.345Z,15.25
2018-09-13T01:44:53.402Z,15.14
2018-09-13T01:47:57.894Z,15.13
2018-09-13T01:51:02.370Z,15.11
2018-09-13T01:54:07.333Z,15.06
2018-09-13T01:57:11.786Z,14.99
2018-09-13T02:00:16.229Z,14.87
2018-09-13T02:03:21.430Z,14.86
2018-09-13T02:06:25.845Z,14.83
2018-09-13T02:09:30.275Z,14.80
2018-09-13T02:12:34.691Z,14.81
2018-09-13T02:15:40.291Z,14.85
2018-09-13T02:18:44.677Z,14.93
2018-09-13T02:21:49.173Z,14.89
2018-09-13T02:24:54.670Z,14.96
2018-09-13T02:27:59.114Z,14.89
2018-09-13T02:31:03.603Z,14.82
2018-09-13T02:34:07.988Z,14.98
2018-09-13T02:37:12.413Z,15.05
2018-09-13T02:40:16.561Z,15.20
2018-09-13T02:43:21.101Z,14.98
2018-09-13T02:46:25.549Z,14.94
2018-09-13T02:49:29.955Z,14.99
2018-09-13T02:52:34.341Z,14.44
2018-09-13T02:55:39.298Z,14.23
2018-09-13T02:58:43.717Z,14.14
2018-09-13T03:01:48.145Z,14.19
2018-09-13T03:04:54.066Z,14.28
2018-09-13T03:07:58.521Z,14.49
2018-09-13T03:11:03.090Z,14.55
2018-09-13T03:14:08.048Z,14.56
2018-09-13T03:17:12.695Z,14.63
2018-09-13T03:20:17.745Z,14.86
2018-09-13T03:23:22.858Z,15.12
2018-09-13T03:26:27.246Z,15.28
2018-09-13T03:29:31.747Z,15.31
2018-09-13T03:32:36.688Z,15.28
2018-09-13T03:35:41.103Z,15.27
2018-09-13T03:38:46.064Z,15.21
2018-09-13T03:41:50.536Z,15.20
2018-09-13T03:44:55.369Z,15.09
2018-09-13T03:47:59.809Z,15.16
2018-09-13T03:51:05.166Z,15.20
2018-09-13T03:54:09.615Z,15.10
2018-09-13T03:57:14.064Z,15.16
2018-09-13T04:00:18.817Z,15.12
2018-09-13T04:03:24.215Z,15.12
2018-09-13T04:06:29.588Z,15.27
2018-09-13T04:09:34.820Z,15.20
2018-09-13T04:12:39.247Z,15.20
2018-09-13T04:15:44.522Z,15.09
2018-09-13T04:18:49.894Z,15.11
2018-09-13T04:21:54.237Z,15.15
2018-09-13T04:24:58.340Z,15.16
2018-09-13T04:28:03.282Z,15.19
2018-09-13T04:31:07.678Z,15.25
2018-09-13T04:34:12.951Z,15.23
2018-09-13T04:37:18.490Z,15.19
2018-09-13T04:40:22.991Z,15.21
2018-09-13T04:43:29.531Z,15.40
2018-09-13T04:46:33.957Z,15.24
2018-09-13T04:49:38.474Z,15.30
2018-09-13T04:52:43.677Z,15.24
2018-09-13T04:55:50.094Z,15.24
2018-09-13T04:58:54.609Z,15.19
2018-09-13T05:01:58.994Z,15.28
2018-09-13T05:05:03.517Z,15.31
2018-09-13T05:08:07.889Z,15.46
2018-09-13T05:11:12.831Z,15.42
2018-09-13T05:14:18.171Z,15.46
2018-09-13T05:17:22.593Z,15.48
2018-09-13T05:20:27.861Z,15.52
2018-09-13T05:23:32.448Z,15.62
2018-09-13T05:26:37.981Z,15.70
2018-09-13T05:29:42.402Z,15.79
2018-09-13T05:32:46.874Z,15.99
2018-09-13T05:35:51.615Z,16.13
2018-09-13T05:38:56.166Z,16.31
2018-09-13T05:42:00.590Z,16.42
2018-09-13T05:45:05.262Z,16.50
2018-09-13T05:48:09.738Z,16.73
2018-09-13T05:51:14.315Z,16.92
2018-09-13T05:54:19.422Z,17.09
2018-09-13T05:57:24.922Z,17.20
2018-09-13T06:00:29.502Z,17.37
2018-09-13T06:03:36.321Z,17.51
2018-09-13T06:06:41.513Z,17.65
2018-09-13T06:09:46.817Z,17.77
2018-09-13T06:12:52.391Z,18.00
2018-09-13T06:15:58.541Z,18.10
2018-09-13T06:19:03.333Z,18.55
2018-09-13T06:22:08.146Z,19.06
2018-09-13T06:25:12.996Z,19.19
2018-09-13T06:28:17.965Z,19.27
2018-09-13T06:31:22.513Z,19.67
2018-09-13T06:34:33.273Z,20.97
2018-09-13T06:37:37.710Z,21.91
2018-09-13T06:40:43.174Z,21.57
2018-09-13T06:43:48.870Z,20.86
2018-09-13T06:46:53.829Z,20.30
2018-09-13T06:49:59.529Z,20.17
2018-09-13T06:53:04.215Z,20.32
2018-09-13T06:56:08.704Z,20.69
2018-09-13T06:59:13.688Z,20.92
2018-09-13T07:02:18.226Z,21.03
2018-09-13T07:05:22.695Z,21.18
2018-09-13T07:08:27.829Z,21.46
2018-09-13T07:11:32.358Z,21.66
2018-09-13T07:14:37.628Z,21.57
2018-09-13T07:17:42.085Z,21.78
2018-09-13T07:20:46.549Z,21.92
2018-09-13T07:23:52.207Z,21.97
2018-09-13T07:26:57.662Z,22.16
2018-09-13T07:30:02.571Z,22.22
2018-09-13T07:33:07.475Z,22.40
2018-09-13T07:36:11.978Z,22.65
2018-09-13T07:39:18.030Z,22.63
2018-09-13T07:42:22.465Z,22.58
2018-09-13T07:45:26.901Z,22.52
2018-09-13T07:48:31.667Z,22.58
2018-09-13T07:51:36.912Z,22.80
2018-09-13T07:54:41.891Z,22.63
2018-09-13T07:57:48.286Z,22.66
2018-09-13T08:00:54.377Z,22.63
2018-09-13T08:03:59.258Z,22.40
2018-09-13T08:07:03.417Z,21.83
2018-09-13T08:10:08.299Z,21.53
2018-09-13T08:13:13.423Z,21.49
2018-09-13T08:16:18.414Z,21.70
2018-09-13T08:19:22.929Z,21.72
2018-09-13T08:22:27.327Z,21.97
2018-09-13T08:25:32.480Z,21.74
2018-09-13T08:28:37.297Z,21.74
2018-09-13T08:31:41.773Z,21.60
2018-09-13T08:34:47.710Z,21.59
2018-09-13T08:37:52.308Z,21.75
2018-09-13T08:40:57.064Z,21.66
2018-09-13T08:44:01.466Z,21.81
2018-09-13T08:47:05.858Z,22.05
2018-09-13T08:50:11.469Z,22.00
2018-09-13T08:53:16.566Z,22.30
2018-09-13T08:56:21.057Z,22.37
2018-09-13T08:59:26.243Z,22.25
2018-09-13T09:02:30.723Z,22.14
2018-09-13T09:05:36.816Z,22.50
2018-09-13T09:08:45.135Z,22.89
2018-09-13T09:11:51.840Z,23.22
2018-09-13T09:14:58.627Z,22.85
2018-09-13T09:18:03.117Z,23.03
2018-09-13T09:21:08.643Z,23.09
2018-09-13T09:24:14.514Z,23.45
2018-09-13T09:27:19.203Z,23.39
2018-09-13T09:30:25.181Z,22.65
2018-09-13T09:33:32.758Z,22.35
2018-09-13T09:36:37.744Z,22.70
2018-09-13T09:39:42.736Z,22.92
2018-09-13T09:42:47.312Z,23.63
2018-09-13T09:45:52.045Z,23.09
2018-09-13T09:48:56.983Z,22.68
2018-09-13T09:52:01.927Z,23.14
2018-09-13T09:55:07.162Z,23.94
2018-09-13T09:58:11.971Z,24.43
2018-09-13T10:01:33.217Z,22.95
2018-09-13T10:04:37.743Z,23.16
2018-09-13T10:07:42.226Z,24.31
2018-09-13T10:10:49.140Z,25.19
2018-09-13T10:13:54.327Z,24.61
2018-09-13T10:17:04.255Z,23.75
2018-09-13T10:20:14.499Z,24.50
2018-09-13T10:23:24.297Z,25.24
2018-09-13T10:26:34.520Z,25.62
2018-09-13T10:29:44.013Z,25.71
2018-09-13T10:32:54.798Z,26.15
2018-09-13T10:36:06.863Z,26.43
2018-09-13T10:39:16.581Z,25.94
2018-09-13T10:43:32.043Z,25.79
2018-09-13T10:46:37.051Z,26.96
2018-09-13T10:49:46.664Z,27.06
2018-09-13T10:52:57.734Z,25.17
2018-09-13T10:56:02.035Z,24.67
2018-09-13T10:59:07.603Z,24.49
2018-09-13T11:02:12.415Z,24.60
2018-09-13T11:05:18.172Z,24.81
2018-09-13T11:08:22.707Z,25.35
2018-09-13T11:11:28.238Z,25.75
2018-09-13T11:14:41.883Z,25.56
2018-09-13T11:17:46.559Z,25.14
2018-09-13T11:20:53.562Z,25.44
2018-09-13T11:23:58.215Z,25.75
2018-09-13T11:27:03.826Z,26.02
2018-09-13T11:30:08.403Z,26.14
2018-09-13T11:33:15.677Z,26.66
2018-09-13T11:36:22.327Z,27.32
2018-09-13T11:39:26.749Z,27.49
2018-09-13T11:42:31.989Z,27.55
2018-09-13T11:45:38.031Z,27.44
2018-09-13T11:48:42.629Z,27.59
2018-09-13T11:51:48.227Z,27.67
2018-09-13T11:54:53.398Z,27.56
2018-09-13T11:57:57.845Z,27.29
2018-09-13T12:01:02.436Z,26.49
2018-09-13T12:04:06.937Z,26.53
2018-09-13T12:07:11.433Z,26.65
2018-09-13T12:10:16.642Z,26.00
2018-09-13T12:13:23.603Z,26.31
2018-09-13T12:16:28.267Z,26.70
2018-09-13T12:19:32.958Z,26.48
2018-09-13T12:22:37.977Z,26.45
2018-09-13T12:25:43.696Z,26.77
2018-09-13T12:28:49.398Z,26.44
2018-09-13T12:31:54.440Z,26.71
2018-09-13T12:34:59.182Z,26.67
2018-09-13T12:38:04.267Z,26.64
2018-09-13T12:41:10.071Z,26.60
2018-09-13T12:44:14.609Z,26.56
2018-09-13T12:47:21.170Z,26.63
2018-09-13T12:50:25.693Z,26.47
2018-09-13T12:53:30.951Z,26.73
2018-09-13T12:56:35.733Z,26.33
2018-09-13T12:59:40.167Z,26.42
2018-09-13T13:02:44.605Z,26.45
2018-09-13T13:05:50.803Z,26.07
2018-09-13T13:08:55.725Z,25.85
2018-09-13T13:12:00.534Z,25.72
2018-09-13T13:15:07.485Z,25.58
2018-09-13T13:18:15.239Z,25.50
2018-09-13T13:21:19.930Z,25.53
2018-09-13T13:24:25.420Z,25.40
2018-09-13T13:27:30.688Z,25.63
2018-09-13T13:30:35.802Z,25.80
2018-09-13T13:33:41.785Z,25.73
2018-09-13T13:36:46.789Z,25.88
2018-09-13T13:39:51.384Z,25.98
2018-09-13T13:42:56.024Z,25.93
2018-09-13T13:46:00.462Z,26.41
2018-09-13T13:49:05.154Z,26.62
2018-09-13T13:52:10.514Z,26.57
2018-09-13T13:55:14.989Z,26.63
2018-09-13T13:58:19.466Z,26.37
2018-09-13T14:01:24.649Z,25.96
2018-09-13T14:04:29.734Z,25.83
2018-09-13T14:07:34.653Z,25.93
2018-09-13T14:10:40.185Z,25.78
2018-09-13T14:17:24.656Z,25.75
2018-09-13T14:20:30.299Z,25.57
2018-09-13T14:23:35.870Z,25.39
2018-09-13T14:26:41.599Z,25.21
2018-09-13T14:29:47.734Z,25.10
2018-09-13T14:32:52.642Z,24.90
2018-09-13T14:35:57.720Z,24.83
2018-09-13T14:39:02.767Z,24.58
2018-09-13T14:42:08.098Z,24.59
2018-09-13T14:45:13.361Z,24.62
2018-09-13T14:48:18.308Z,24.61
2018-09-13T14:51:23.395Z,24.63
2018-09-13T14:54:28.048Z,24.71
2018-09-13T14:57:32.451Z,24.58
2018-09-13T15:00:37.833Z,24.66
2018-09-13T15:03:49.207Z,24.59
2018-09-13T15:06:54.307Z,24.64
2018-09-13T15:09:59.313Z,24.55
2018-09-13T15:13:04.412Z,24.59
2018-09-13T15:16:09.788Z,24.62
2018-09-13T15:19:15.294Z,24.59
2018-09-13T15:22:20.137Z,24.63
2018-09-13T15:25:25.415Z,24.61
2018-09-13T15:28:30.635Z,24.50
2018-09-13T15:31:35.757Z,24.50
2018-09-13T15:34:40.721Z,24.45
2018-09-13T15:37:46.514Z,24.42
2018-09-13T15:40:51.411Z,24.32
2018-09-13T15:43:56.725Z,24.20
2018-09-13T15:47:02.029Z,24.00
2018-09-13T15:50:06.978Z,23.81
2018-09-13T15:53:12.024Z,23.78
2018-09-13T15:56:17.043Z,23.79
2018-09-13T15:59:56.296Z,23.68
2018-09-13T16:03:01.115Z,23.57
2018-09-13T16:06:05.777Z,23.43
2018-09-13T16:09:11.225Z,23.22
2018-09-13T16:12:17.566Z,23.11
2018-09-13T16:15:22.311Z,22.88
2018-09-13T16:18:26.807Z,22.75
2018-09-13T16:21:31.715Z,22.60
2018-09-13T16:24:36.252Z,22.47
2018-09-13T16:27:40.903Z,22.06
2018-09-13T16:30:45.710Z,21.93
2018-09-13T16:33:51.534Z,21.67
2018-09-13T16:37:05.871Z,21.27
2018-09-13T16:41:14.373Z,20.98
2018-09-13T16:44:24.105Z,20.90
2018-09-13T16:47:34.017Z,20.86
2018-09-13T16:50:38.342Z,20.85
2018-09-13T16:53:42.789Z,20.75
2018-09-13T16:56:47.241Z,20.61
2018-09-13T16:59:51.690Z,20.62
2018-09-13T17:02:57.917Z,20.59
2018-09-13T17:06:02.378Z,20.53
2018-09-13T17:09:09.655Z,20.51
2018-09-13T17:12:14.121Z,20.42
2018-09-13T17:15:18.544Z,20.33
2018-09-13T17:18:22.937Z,20.41
2018-09-13T17:21:27.465Z,20.38
2018-09-13T17:24:31.922Z,20.35
2018-09-13T17:27:36.747Z,20.20
2018-09-13T17:30:45.900Z,20.31
2018-09-13T17:33:50.549Z,20.13
2018-09-13T17:36:55.698Z,19.97
2018-09-13T17:40:00.325Z,19.92
2018-09-13T17:43:04.987Z,20.13
2018-09-13T17:46:09.673Z,19.93
2018-09-13T17:49:15.258Z,19.69
2018-09-13T17:52:20.257Z,19.85
2018-09-13T17:55:24.705Z,19.65
2018-09-13T17:58:29.322Z,19.61
2018-09-13T18:01:33.872Z,19.60
2018-09-13T18:04:38.444Z,19.66
2018-09-13T18:07:43.124Z,19.74
2018-09-13T18:10:47.628Z,19.61
2018-09-13T18:13:52.181Z,19.56
2018-09-13T18:16:57.704Z,19.71
2018-09-13T18:20:02.626Z,19.85
2018-09-13T18:23:07.064Z,19.69
2018-09-13T18:26:11.570Z,19.54
2018-09-13T18:29:17.498Z,19.40
2018-09-13T18:32:22.510Z,19.41
2018-09-13T18:35:28.038Z,19.40
2018-09-13T18:38:33.139Z,19.38
2018-09-13T18:41:38.986Z,19.31
2018-09-13T18:44:43.849Z,19.34
2018-09-13T18:47:49.704Z,19.38
2018-09-13T18:50:55.642Z,19.39
2018-09-13T18:54:00.573Z,19.33
2018-09-13T18:57:06.002Z,19.26
2018-09-13T19:00:11.153Z,19.24
2018-09-13T19:03:15.855Z,19.25
2018-09-13T19:06:21.093Z,19.11
2018-09-13T19:09:26.301Z,19.19
2018-09-13T19:12:31.337Z,19.17
2018-09-13T19:15:37.264Z,18.97
2018-09-13T19:18:42.653Z,18.93
2018-09-13T19:21:48.487Z,18.84
2018-09-13T19:24:54.869Z,18.73
2018-09-13T19:28:00.029Z,18.72
2018-09-13T19:31:05.491Z,18.89
2018-09-13T19:34:27.194Z,18.73
2018-09-13T19:37:32.211Z,18.76
2018-09-13T19:40:37.503Z,18.84
2018-09-13T19:43:43.243Z,18.84
2018-09-13T19:46:47.677Z,18.66
2018-09-13T19:49:52.591Z,18.70
2018-09-13T19:52:57.423Z,18.57
2018-09-13T19:56:02.684Z,18.61
2018-09-13T19:59:08.366Z,18.64
2018-09-13T20:02:14.181Z,18.63
2018-09-13T20:05:18.952Z,18.66
2018-09-13T20:08:23.743Z,18.54
2018-09-13T20:11:28.526Z,18.50
2018-09-13T20:14:33.068Z,18.43
2018-09-13T20:17:37.762Z,18.46
2018-09-13T20:20:42.564Z,18.45
2018-09-13T20:23:47.321Z,18.38
2018-09-13T20:26:51.983Z,18.41
2018-09-13T20:29:56.933Z,18.38
2018-09-13T20:33:02.527Z,18.35
2018-09-13T20:36:07.922Z,18.34
2018-09-13T20:39:12.976Z,18.42
2018-09-13T20:42:17.667Z,18.36
2018-09-13T20:45:23.091Z,18.23
2018-09-13T20:48:28.426Z,18.13
2018-09-13T20:51:33.627Z,18.11
2018-09-13T20:54:38.455Z,17.86
2018-09-13T20:57:43.841Z,17.95
2018-09-13T21:00:52.084Z,17.93
2018-09-13T21:03:56.792Z,18.04
2018-09-13T21:07:01.798Z,18.04
2018-09-13T21:10:06.908Z,18.01
2018-09-13T21:13:11.794Z,18.00
2018-09-13T21:16:17.133Z,17.98
2018-09-13T21:19:21.952Z,18.04
2018-09-13T21:22:26.505Z,18.01
2018-09-13T21:25:30.916Z,17.98
2018-09-13T21:28:35.368Z,17.90
2018-09-13T21:31:58.168Z,17.77
2018-09-13T21:35:03.838Z,17.83
2018-09-13T21:38:08.963Z,17.75
2018-09-13T21:41:13.718Z,17.78
2018-09-13T21:44:18.440Z,17.71
2018-09-13T21:47:23.320Z,17.85
2018-09-13T21:50:28.001Z,17.82
2018-09-13T21:53:32.613Z,17.87
2018-09-13T21:56:37.685Z,17.91
2018-09-13T21:59:42.434Z,17.85
2018-09-13T22:02:47.117Z,17.92
2018-09-13T22:05:52.248Z,17.74
2018-09-13T22:08:56.883Z,17.70
2018-09-13T22:12:02.018Z,17.63
2018-09-13T22:15:06.859Z,17.70
2018-09-13T22:18:11.341Z,17.73
2018-09-13T22:21:16.137Z,17.74
2018-09-13T22:24:20.767Z,17.74
2018-09-13T22:27:25.636Z,17.77
2018-09-13T22:30:30.252Z,17.77
2018-09-13T22:33:34.873Z,17.66
2018-09-13T22:36:39.693Z,17.75
2018-09-13T22:39:44.192Z,17.72
2018-09-13T22:42:48.636Z,17.66
2018-09-13T22:45:53.101Z,17.68
2018-09-13T22:48:58.391Z,17.53
2018-09-13T22:52:02.588Z,17.67
2018-09-13T22:55:07.130Z,17.59
2018-09-13T22:58:11.614Z,17.66
2018-09-13T23:01:16.213Z,17.61
2018-09-13T23:04:20.566Z,17.60
2018-09-13T23:07:25.080Z,17.59
2018-09-13T23:10:30.270Z,17.57
2018-09-13T23:13:34.635Z,17.75
2018-09-13T23:16:39.018Z,17.76
2018-09-13T23:19:43.605Z,17.65
2018-09-13T23:22:48.305Z,17.55
2018-09-13T23:25:52.756Z,17.63
2018-09-13T23:28:58.798Z,17.53
2018-09-13T23:32:03.273Z,17.68
2018-09-13T23:35:07.690Z,17.49
2018-09-13T23:38:12.127Z,17.60
2018-09-13T23:41:16.586Z,17.44
2018-09-13T23:44:21.165Z,17.53
2018-09-13T23:47:25.921Z,17.40
2018-09-13T23:50:30.528Z,17.36
2018-09-13T23:53:34.906Z,17.50
2018-09-13T23:56:40.004Z,17.48
2018-09-13T23:59:44.426Z,17.49
